sensor_id;sensor_type;location;lat;lon;timestamp;temperature;humidity
210;DHT22;90;48.810;9.120;2022-08-21T00:01:13;20.20;59.60
210;DHT22;90;48.810;9.120;2022-08-21T00:03:41;20.20;59.30
210;DHT22;90;48.810;9.120;2022-08-21T00:06:08;20.20;59.40
210;DHT22;90;48.810;9.120;2022-08-21T00:08:35;20.10;59.50
210;DHT22;90;48.810;9.120;2022-08-21T00:11:07;20.10;59.50
210;DHT22;90;48.810;9.120;2022-08-21T00:13:35;20.00;60.00
210;DHT22;90;48.810;9.120;2022-08-21T00:16:03;19.90;60.10
210;DHT22;90;48.810;9.120;2022-08-21T00:18:30;19.90;59.90
210;DHT22;90;48.810;9.120;2022-08-21T00:20:57;19.80;60.70
210;DHT22;90;48.810;9.120;2022-08-21T00:23:25;19.90;60.60
210;DHT22;90;48.810;9.120;2022-08-21T00:25:52;19.80;60.90
210;DHT22;90;48.810;9.120;2022-08-21T00:28:20;19.90;60.60
210;DHT22;90;48.810;9.120;2022-08-21T00:30:47;19.90;60.50
210;DHT22;90;48.810;9.120;2022-08-21T00:33:14;19.80;60.60
210;DHT22;90;48.810;9.120;2022-08-21T00:35:42;19.80;60.90
210;DHT22;90;48.810;9.120;2022-08-21T00:38:10;19.70;61.00
210;DHT22;90;48.810;9.120;2022-08-21T00:40:41;19.80;61.00
210;DHT22;90;48.810;9.120;2022-08-21T00:43:11;19.80;61.00
210;DHT22;90;48.810;9.120;2022-08-21T00:45:41;19.50;61.70
210;DHT22;90;48.810;9.120;2022-08-21T00:48:10;19.50;61.90
210;DHT22;90;48.810;9.120;2022-08-21T00:50:40;19.60;61.50
210;DHT22;90;48.810;9.120;2022-08-21T00:53:10;19.40;62.10
210;DHT22;90;48.810;9.120;2022-08-21T00:55:39;19.50;62.10
210;DHT22;90;48.810;9.120;2022-08-21T00:58:09;19.40;62.20
210;DHT22;90;48.810;9.120;2022-08-21T01:00:41;19.30;62.30
210;DHT22;90;48.810;9.120;2022-08-21T01:03:10;19.40;62.10
210;DHT22;90;48.810;9.120;2022-08-21T01:05:37;19.30;62.40
210;DHT22;90;48.810;9.120;2022-08-21T01:08:06;19.30;62.70
210;DHT22;90;48.810;9.120;2022-08-21T01:10:34;19.30;62.60
210;DHT22;90;48.810;9.120;2022-08-21T01:13:02;19.30;62.90
210;DHT22;90;48.810;9.120;2022-08-21T01:15:32;19.20;63.10
210;DHT22;90;48.810;9.120;2022-08-21T01:18:02;19.20;63.10
210;DHT22;90;48.810;9.120;2022-08-21T01:20:30;19.10;63.60
210;DHT22;90;48.810;9.120;2022-08-21T01:22:58;19.10;63.60
210;DHT22;90;48.810;9.120;2022-08-21T01:25:28;19.20;63.70
210;DHT22;90;48.810;9.120;2022-08-21T01:27:57;19.10;63.90
210;DHT22;90;48.810;9.120;2022-08-21T01:30:28;19.10;63.90
210;DHT22;90;48.810;9.120;2022-08-21T01:32:56;19.20;63.80
210;DHT22;90;48.810;9.120;2022-08-21T01:35:23;19.20;63.90
210;DHT22;90;48.810;9.120;2022-08-21T01:37:50;19.00;64.40
210;DHT22;90;48.810;9.120;2022-08-21T01:40:19;18.90;64.80
210;DHT22;90;48.810;9.120;2022-08-21T01:42:47;18.90;64.90
210;DHT22;90;48.810;9.120;2022-08-21T01:45:15;18.80;65.30
210;DHT22;90;48.810;9.120;2022-08-21T01:47:42;18.70;65.40
210;DHT22;90;48.810;9.120;2022-08-21T01:50:13;18.60;65.70
210;DHT22;90;48.810;9.120;2022-08-21T01:52:41;18.60;65.90
210;DHT22;90;48.810;9.120;2022-08-21T01:55:09;18.60;65.90
210;DHT22;90;48.810;9.120;2022-08-21T01:57:38;18.70;65.90
210;DHT22;90;48.810;9.120;2022-08-21T02:00:08;18.60;66.10
210;DHT22;90;48.810;9.120;2022-08-21T02:02:37;18.60;66.30
210;DHT22;90;48.810;9.120;2022-08-21T02:05:05;18.50;66.30
210;DHT22;90;48.810;9.120;2022-08-21T02:07:36;18.60;66.20
210;DHT22;90;48.810;9.120;2022-08-21T02:10:06;18.60;66.20
210;DHT22;90;48.810;9.120;2022-08-21T02:12:33;18.50;66.40
210;DHT22;90;48.810;9.120;2022-08-21T02:15:02;18.50;66.60
210;DHT22;90;48.810;9.120;2022-08-21T02:17:37;18.40;67.10
210;DHT22;90;48.810;9.120;2022-08-21T02:20:05;18.40;67.10
210;DHT22;90;48.810;9.120;2022-08-21T02:22:33;18.30;67.50
210;DHT22;90;48.810;9.120;2022-08-21T02:25:01;18.40;67.20
210;DHT22;90;48.810;9.120;2022-08-21T02:27:38;18.20;67.90
210;DHT22;90;48.810;9.120;2022-08-21T02:30:09;18.20;68.00
210;DHT22;90;48.810;9.120;2022-08-21T02:32:37;18.00;68.50
210;DHT22;90;48.810;9.120;2022-08-21T02:35:05;18.00;68.40
210;DHT22;90;48.810;9.120;2022-08-21T02:37:32;17.90;68.60
210;DHT22;90;48.810;9.120;2022-08-21T02:39:59;18.00;68.60
210;DHT22;90;48.810;9.120;2022-08-21T02:42:27;17.90;68.70
210;DHT22;90;48.810;9.120;2022-08-21T02:44:54;17.90;68.50
210;DHT22;90;48.810;9.120;2022-08-21T02:47:22;17.90;68.90
210;DHT22;90;48.810;9.120;2022-08-21T02:49:49;17.80;69.40
210;DHT22;90;48.810;9.120;2022-08-21T02:52:16;17.80;69.70
210;DHT22;90;48.810;9.120;2022-08-21T02:54:43;17.70;69.60
210;DHT22;90;48.810;9.120;2022-08-21T02:57:11;17.80;69.70
210;DHT22;90;48.810;9.120;2022-08-21T02:59:38;17.80;69.50
210;DHT22;90;48.810;9.120;2022-08-21T03:02:06;17.80;69.60
210;DHT22;90;48.810;9.120;2022-08-21T03:04:34;17.80;69.70
210;DHT22;90;48.810;9.120;2022-08-21T03:07:02;17.70;69.90
210;DHT22;90;48.810;9.120;2022-08-21T03:09:29;17.60;69.80
210;DHT22;90;48.810;9.120;2022-08-21T03:11:56;17.50;70.20
210;DHT22;90;48.810;9.120;2022-08-21T03:14:23;17.40;70.30
210;DHT22;90;48.810;9.120;2022-08-21T03:16:51;17.30;70.50
210;DHT22;90;48.810;9.120;2022-08-21T03:19:18;17.40;70.30
210;DHT22;90;48.810;9.120;2022-08-21T03:21:47;17.20;70.90
210;DHT22;90;48.810;9.120;2022-08-21T03:24:14;17.20;71.30
210;DHT22;90;48.810;9.120;2022-08-21T03:26:44;17.00;71.90
210;DHT22;90;48.810;9.120;2022-08-21T03:29:11;17.00;71.80
210;DHT22;90;48.810;9.120;2022-08-21T03:31:39;17.00;72.00
210;DHT22;90;48.810;9.120;2022-08-21T03:34:06;17.00;72.10
210;DHT22;90;48.810;9.120;2022-08-21T03:36:33;16.90;72.50
210;DHT22;90;48.810;9.120;2022-08-21T03:39:02;16.90;72.60
210;DHT22;90;48.810;9.120;2022-08-21T03:41:29;16.90;72.40
210;DHT22;90;48.810;9.120;2022-08-21T03:43:56;16.90;72.10
210;DHT22;90;48.810;9.120;2022-08-21T03:46:24;17.40;76.80
210;DHT22;90;48.810;9.120;2022-08-21T03:48:52;18.30;73.80
210;DHT22;90;48.810;9.120;2022-08-21T03:51:19;19.00;70.10
210;DHT22;90;48.810;9.120;2022-08-21T03:53:48;19.60;67.40
210;DHT22;90;48.810;9.120;2022-08-21T03:56:17;20.00;65.10
210;DHT22;90;48.810;9.120;2022-08-21T03:58:44;20.20;63.90
210;DHT22;90;48.810;9.120;2022-08-21T04:01:11;20.50;63.20
210;DHT22;90;48.810;9.120;2022-08-21T04:03:38;20.60;62.10
210;DHT22;90;48.810;9.120;2022-08-21T04:06:06;20.70;61.70
210;DHT22;90;48.810;9.120;2022-08-21T04:08:34;20.70;60.60
210;DHT22;90;48.810;9.120;2022-08-21T04:11:02;20.20;61.00
210;DHT22;90;48.810;9.120;2022-08-21T04:13:30;19.60;62.50
210;DHT22;90;48.810;9.120;2022-08-21T04:15:58;19.10;64.10
210;DHT22;90;48.810;9.120;2022-08-21T04:18:25;18.60;65.60
210;DHT22;90;48.810;9.120;2022-08-21T04:20:53;18.20;67.00
210;DHT22;90;48.810;9.120;2022-08-21T04:23:21;17.90;68.00
210;DHT22;90;48.810;9.120;2022-08-21T04:25:48;17.60;68.90
210;DHT22;90;48.810;9.120;2022-08-21T04:28:15;17.40;69.80
210;DHT22;90;48.810;9.120;2022-08-21T04:30:44;17.20;70.60
210;DHT22;90;48.810;9.120;2022-08-21T04:33:11;17.20;70.70
210;DHT22;90;48.810;9.120;2022-08-21T04:35:39;17.10;70.90
210;DHT22;90;48.810;9.120;2022-08-21T04:38:07;17.10;71.00
210;DHT22;90;48.810;9.120;2022-08-21T04:40:34;17.00;71.40
210;DHT22;90;48.810;9.120;2022-08-21T04:43:04;16.80;72.50
210;DHT22;90;48.810;9.120;2022-08-21T04:45:33;16.60;72.90
210;DHT22;90;48.810;9.120;2022-08-21T04:48:03;16.50;73.40
210;DHT22;90;48.810;9.120;2022-08-21T04:50:35;16.50;73.60
210;DHT22;90;48.810;9.120;2022-08-21T04:53:05;16.70;73.20
210;DHT22;90;48.810;9.120;2022-08-21T04:55:33;16.80;72.50
210;DHT22;90;48.810;9.120;2022-08-21T04:58:00;16.80;72.60
210;DHT22;90;48.810;9.120;2022-08-21T05:00:28;16.80;72.70
210;DHT22;90;48.810;9.120;2022-08-21T05:02:56;16.90;72.60
210;DHT22;90;48.810;9.120;2022-08-21T05:05:27;17.00;72.30
210;DHT22;90;48.810;9.120;2022-08-21T05:07:55;17.00;72.00
210;DHT22;90;48.810;9.120;2022-08-21T05:10:23;17.00;72.30
210;DHT22;90;48.810;9.120;2022-08-21T05:12:50;17.00;72.50
210;DHT22;90;48.810;9.120;2022-08-21T05:15:18;17.00;72.80
210;DHT22;90;48.810;9.120;2022-08-21T05:17:46;17.00;73.00
210;DHT22;90;48.810;9.120;2022-08-21T05:20:14;17.00;73.10
210;DHT22;90;48.810;9.120;2022-08-21T05:22:42;17.10;72.90
210;DHT22;90;48.810;9.120;2022-08-21T05:25:10;17.10;73.10
210;DHT22;90;48.810;9.120;2022-08-21T05:27:37;17.00;73.00
210;DHT22;90;48.810;9.120;2022-08-21T05:30:06;17.10;72.80
210;DHT22;90;48.810;9.120;2022-08-21T05:32:34;17.20;72.80
210;DHT22;90;48.810;9.120;2022-08-21T05:35:01;17.30;72.30
210;DHT22;90;48.810;9.120;2022-08-21T05:37:29;17.50;72.00
210;DHT22;90;48.810;9.120;2022-08-21T05:39:58;17.60;71.90
210;DHT22;90;48.810;9.120;2022-08-21T05:42:25;17.60;71.60
210;DHT22;90;48.810;9.120;2022-08-21T05:44:53;17.80;71.20
210;DHT22;90;48.810;9.120;2022-08-21T05:47:20;17.80;71.70
210;DHT22;90;48.810;9.120;2022-08-21T05:49:47;17.90;71.40
210;DHT22;90;48.810;9.120;2022-08-21T05:52:18;18.10;71.00
210;DHT22;90;48.810;9.120;2022-08-21T05:54:46;18.20;70.70
210;DHT22;90;48.810;9.120;2022-08-21T05:57:14;18.40;70.10
210;DHT22;90;48.810;9.120;2022-08-21T05:59:41;18.50;69.70
210;DHT22;90;48.810;9.120;2022-08-21T06:02:08;18.60;69.60
210;DHT22;90;48.810;9.120;2022-08-21T06:04:36;18.80;68.90
210;DHT22;90;48.810;9.120;2022-08-21T06:07:04;18.90;68.80
210;DHT22;90;48.810;9.120;2022-08-21T06:09:31;18.90;68.50
210;DHT22;90;48.810;9.120;2022-08-21T06:12:02;18.90;68.70
210;DHT22;90;48.810;9.120;2022-08-21T06:14:31;19.00;68.50
210;DHT22;90;48.810;9.120;2022-08-21T06:17:02;19.10;67.80
210;DHT22;90;48.810;9.120;2022-08-21T06:19:30;19.30;67.00
210;DHT22;90;48.810;9.120;2022-08-21T06:21:57;19.30;66.90
210;DHT22;90;48.810;9.120;2022-08-21T06:24:24;19.40;66.70
210;DHT22;90;48.810;9.120;2022-08-21T06:26:52;19.40;66.10
210;DHT22;90;48.810;9.120;2022-08-21T06:29:19;19.60;65.60
210;DHT22;90;48.810;9.120;2022-08-21T06:31:50;19.70;65.00
210;DHT22;90;48.810;9.120;2022-08-21T06:34:18;19.70;64.90
210;DHT22;90;48.810;9.120;2022-08-21T06:36:45;19.90;64.40
210;DHT22;90;48.810;9.120;2022-08-21T06:39:12;20.00;63.70
210;DHT22;90;48.810;9.120;2022-08-21T06:41:39;20.10;63.30
210;DHT22;90;48.810;9.120;2022-08-21T06:44:07;20.20;63.10
210;DHT22;90;48.810;9.120;2022-08-21T06:46:34;20.20;61.60
210;DHT22;90;48.810;9.120;2022-08-21T06:49:03;20.20;61.70
210;DHT22;90;48.810;9.120;2022-08-21T06:51:30;20.30;61.90
210;DHT22;90;48.810;9.120;2022-08-21T06:53:57;20.40;61.90
210;DHT22;90;48.810;9.120;2022-08-21T06:56:24;20.50;61.50
210;DHT22;90;48.810;9.120;2022-08-21T06:58:52;20.50;61.30
210;DHT22;90;48.810;9.120;2022-08-21T07:01:20;20.60;61.10
210;DHT22;90;48.810;9.120;2022-08-21T07:03:47;20.70;60.70
210;DHT22;90;48.810;9.120;2022-08-21T07:06:16;20.70;60.60
210;DHT22;90;48.810;9.120;2022-08-21T07:08:44;20.80;60.50
210;DHT22;90;48.810;9.120;2022-08-21T07:11:14;20.80;60.80
210;DHT22;90;48.810;9.120;2022-08-21T07:13:43;20.80;60.90
210;DHT22;90;48.810;9.120;2022-08-21T07:16:11;20.90;60.60
210;DHT22;90;48.810;9.120;2022-08-21T07:18:38;21.00;60.40
210;DHT22;90;48.810;9.120;2022-08-21T07:21:08;21.00;59.70
210;DHT22;90;48.810;9.120;2022-08-21T07:23:41;21.10;59.40
210;DHT22;90;48.810;9.120;2022-08-21T07:26:11;21.10;59.60
210;DHT22;90;48.810;9.120;2022-08-21T07:28:38;21.20;59.00
210;DHT22;90;48.810;9.120;2022-08-21T07:31:05;21.30;58.60
210;DHT22;90;48.810;9.120;2022-08-21T07:33:36;21.30;58.40
210;DHT22;90;48.810;9.120;2022-08-21T07:36:06;21.30;58.40
210;DHT22;90;48.810;9.120;2022-08-21T07:38:34;21.40;58.40
210;DHT22;90;48.810;9.120;2022-08-21T07:41:14;21.40;58.50
210;DHT22;90;48.810;9.120;2022-08-21T07:43:42;21.40;58.10
210;DHT22;90;48.810;9.120;2022-08-21T07:46:10;21.50;58.10
210;DHT22;90;48.810;9.120;2022-08-21T07:48:38;21.60;57.90
210;DHT22;90;48.810;9.120;2022-08-21T07:51:07;21.60;57.90
210;DHT22;90;48.810;9.120;2022-08-21T07:53:36;21.60;58.20
210;DHT22;90;48.810;9.120;2022-08-21T07:56:06;21.60;58.00
210;DHT22;90;48.810;9.120;2022-08-21T07:58:34;21.70;57.70
210;DHT22;90;48.810;9.120;2022-08-21T08:01:01;21.70;57.80
210;DHT22;90;48.810;9.120;2022-08-21T08:03:28;21.70;57.40
210;DHT22;90;48.810;9.120;2022-08-21T08:05:56;21.80;57.50
210;DHT22;90;48.810;9.120;2022-08-21T08:08:23;21.90;57.20
210;DHT22;90;48.810;9.120;2022-08-21T08:10:51;22.00;56.90
210;DHT22;90;48.810;9.120;2022-08-21T08:13:20;22.10;56.70
210;DHT22;90;48.810;9.120;2022-08-21T08:15:48;22.10;56.20
210;DHT22;90;48.810;9.120;2022-08-21T08:18:15;22.20;55.70
210;DHT22;90;48.810;9.120;2022-08-21T08:20:43;22.30;55.40
210;DHT22;90;48.810;9.120;2022-08-21T08:23:10;22.30;55.20
210;DHT22;90;48.810;9.120;2022-08-21T08:25:37;22.40;54.60
210;DHT22;90;48.810;9.120;2022-08-21T08:28:05;22.40;54.20
210;DHT22;90;48.810;9.120;2022-08-21T08:30:34;22.50;53.40
210;DHT22;90;48.810;9.120;2022-08-21T08:33:01;22.50;53.40
210;DHT22;90;48.810;9.120;2022-08-21T08:35:28;22.50;53.70
210;DHT22;90;48.810;9.120;2022-08-21T08:37:55;22.60;53.60
210;DHT22;90;48.810;9.120;2022-08-21T08:40:41;22.70;53.20
210;DHT22;90;48.810;9.120;2022-08-21T08:43:10;22.80;53.10
210;DHT22;90;48.810;9.120;2022-08-21T08:45:42;22.70;51.90
210;DHT22;90;48.810;9.120;2022-08-21T08:48:13;22.80;51.70
210;DHT22;90;48.810;9.120;2022-08-21T08:50:45;23.00;51.80
210;DHT22;90;48.810;9.120;2022-08-21T08:53:17;23.00;51.90
210;DHT22;90;48.810;9.120;2022-08-21T08:55:46;23.00;52.00
210;DHT22;90;48.810;9.120;2022-08-21T08:58:18;23.10;51.40
210;DHT22;90;48.810;9.120;2022-08-21T09:00:52;23.10;51.10
210;DHT22;90;48.810;9.120;2022-08-21T09:03:20;23.20;50.40
210;DHT22;90;48.810;9.120;2022-08-21T09:05:55;23.20;49.60
210;DHT22;90;48.810;9.120;2022-08-21T09:08:44;23.20;49.50
210;DHT22;90;48.810;9.120;2022-08-21T09:11:23;23.20;49.80
210;DHT22;90;48.810;9.120;2022-08-21T09:13:59;23.30;49.90
210;DHT22;90;48.810;9.120;2022-08-21T09:16:40;23.50;50.30
210;DHT22;90;48.810;9.120;2022-08-21T09:19:22;23.70;50.00
210;DHT22;90;48.810;9.120;2022-08-21T09:22:00;23.70;49.60
210;DHT22;90;48.810;9.120;2022-08-21T09:24:32;23.70;49.40
210;DHT22;90;48.810;9.120;2022-08-21T09:27:06;23.70;49.00
210;DHT22;90;48.810;9.120;2022-08-21T09:29:36;23.60;49.80
210;DHT22;90;48.810;9.120;2022-08-21T09:32:10;23.70;49.70
210;DHT22;90;48.810;9.120;2022-08-21T09:34:39;23.80;49.70
210;DHT22;90;48.810;9.120;2022-08-21T09:37:16;23.90;49.80
210;DHT22;90;48.810;9.120;2022-08-21T09:39:44;24.00;48.90
210;DHT22;90;48.810;9.120;2022-08-21T09:42:11;24.10;49.30
210;DHT22;90;48.810;9.120;2022-08-21T09:44:47;24.00;49.10
210;DHT22;90;48.810;9.120;2022-08-21T09:47:18;24.00;49.80
210;DHT22;90;48.810;9.120;2022-08-21T09:49:46;24.00;50.80
210;DHT22;90;48.810;9.120;2022-08-21T09:52:17;24.10;51.30
210;DHT22;90;48.810;9.120;2022-08-21T09:54:46;24.20;51.20
210;DHT22;90;48.810;9.120;2022-08-21T09:57:27;24.20;49.60
210;DHT22;90;48.810;9.120;2022-08-21T10:00:19;24.10;49.50
210;DHT22;90;48.810;9.120;2022-08-21T10:02:48;24.00;49.30
210;DHT22;90;48.810;9.120;2022-08-21T10:05:18;24.10;49.60
210;DHT22;90;48.810;9.120;2022-08-21T10:07:46;24.30;49.50
210;DHT22;90;48.810;9.120;2022-08-21T10:10:16;24.30;49.20
210;DHT22;90;48.810;9.120;2022-08-21T10:12:49;24.20;49.60
210;DHT22;90;48.810;9.120;2022-08-21T10:15:24;24.00;49.70
210;DHT22;90;48.810;9.120;2022-08-21T10:18:02;24.00;50.70
210;DHT22;90;48.810;9.120;2022-08-21T10:20:37;24.10;49.90
210;DHT22;90;48.810;9.120;2022-08-21T10:23:26;24.30;49.40
210;DHT22;90;48.810;9.120;2022-08-21T10:26:02;24.40;49.50
210;DHT22;90;48.810;9.120;2022-08-21T10:28:36;24.50;49.40
210;DHT22;90;48.810;9.120;2022-08-21T10:31:14;24.50;48.10
210;DHT22;90;48.810;9.120;2022-08-21T10:33:52;24.60;48.30
210;DHT22;90;48.810;9.120;2022-08-21T10:36:25;24.70;48.90
210;DHT22;90;48.810;9.120;2022-08-21T10:39:02;24.60;47.90
210;DHT22;90;48.810;9.120;2022-08-21T10:41:52;24.70;47.60
210;DHT22;90;48.810;9.120;2022-08-21T10:44:33;24.80;47.10
210;DHT22;90;48.810;9.120;2022-08-21T10:47:06;24.90;46.80
210;DHT22;90;48.810;9.120;2022-08-21T10:49:40;25.00;47.20
210;DHT22;90;48.810;9.120;2022-08-21T10:52:35;25.10;47.20
210;DHT22;90;48.810;9.120;2022-08-21T10:55:09;25.10;46.10
210;DHT22;90;48.810;9.120;2022-08-21T10:57:44;25.10;46.80
210;DHT22;90;48.810;9.120;2022-08-21T11:00:16;25.20;47.30
210;DHT22;90;48.810;9.120;2022-08-21T11:02:48;25.30;46.20
210;DHT22;90;48.810;9.120;2022-08-21T11:05:24;25.40;45.60
210;DHT22;90;48.810;9.120;2022-08-21T11:07:55;25.30;45.90
210;DHT22;90;48.810;9.120;2022-08-21T11:10:28;25.30;45.30
210;DHT22;90;48.810;9.120;2022-08-21T11:13:00;25.30;45.90
210;DHT22;90;48.810;9.120;2022-08-21T11:15:39;25.40;45.80
210;DHT22;90;48.810;9.120;2022-08-21T11:18:18;25.50;44.10
210;DHT22;90;48.810;9.120;2022-08-21T11:20:54;25.50;44.20
210;DHT22;90;48.810;9.120;2022-08-21T11:23:34;25.50;44.60
210;DHT22;90;48.810;9.120;2022-08-21T11:26:08;25.60;44.00
210;DHT22;90;48.810;9.120;2022-08-21T11:28:42;25.60;44.60
210;DHT22;90;48.810;9.120;2022-08-21T11:31:20;25.50;45.10
210;DHT22;90;48.810;9.120;2022-08-21T11:34:00;25.60;46.00
210;DHT22;90;48.810;9.120;2022-08-21T11:36:38;25.60;45.90
210;DHT22;90;48.810;9.120;2022-08-21T11:39:17;25.70;46.00
210;DHT22;90;48.810;9.120;2022-08-21T11:41:54;25.90;45.00
210;DHT22;90;48.810;9.120;2022-08-21T11:44:32;26.00;44.40
210;DHT22;90;48.810;9.120;2022-08-21T11:47:07;26.00;44.40
210;DHT22;90;48.810;9.120;2022-08-21T11:49:49;26.00;43.50
210;DHT22;90;48.810;9.120;2022-08-21T11:52:25;25.90;44.00
210;DHT22;90;48.810;9.120;2022-08-21T11:54:57;25.90;44.30
210;DHT22;90;48.810;9.120;2022-08-21T11:57:30;26.00;43.90
210;DHT22;90;48.810;9.120;2022-08-21T12:00:03;26.10;44.00
210;DHT22;90;48.810;9.120;2022-08-21T12:02:35;25.90;44.20
210;DHT22;90;48.810;9.120;2022-08-21T12:05:06;25.70;44.50
210;DHT22;90;48.810;9.120;2022-08-21T12:07:37;25.50;44.60
210;DHT22;90;48.810;9.120;2022-08-21T12:10:07;25.70;45.30
210;DHT22;90;48.810;9.120;2022-08-21T12:12:37;26.00;44.00
210;DHT22;90;48.810;9.120;2022-08-21T12:15:23;26.20;43.40
210;DHT22;90;48.810;9.120;2022-08-21T12:17:57;26.50;42.40
210;DHT22;90;48.810;9.120;2022-08-21T12:20:36;26.50;42.50
210;DHT22;90;48.810;9.120;2022-08-21T12:23:16;26.70;42.50
210;DHT22;90;48.810;9.120;2022-08-21T12:25:46;26.70;42.50
210;DHT22;90;48.810;9.120;2022-08-21T12:28:16;26.60;42.40
210;DHT22;90;48.810;9.120;2022-08-21T12:30:49;26.50;42.00
210;DHT22;90;48.810;9.120;2022-08-21T12:33:23;26.60;42.50
210;DHT22;90;48.810;9.120;2022-08-21T12:35:52;26.60;42.00
210;DHT22;90;48.810;9.120;2022-08-21T12:38:23;26.30;42.00
210;DHT22;90;48.810;9.120;2022-08-21T12:40:55;26.00;42.40
210;DHT22;90;48.810;9.120;2022-08-21T12:43:28;25.90;43.30
210;DHT22;90;48.810;9.120;2022-08-21T12:45:56;25.70;43.50
210;DHT22;90;48.810;9.120;2022-08-21T12:48:29;25.40;43.90
210;DHT22;90;48.810;9.120;2022-08-21T12:51:07;25.30;44.50
210;DHT22;90;48.810;9.120;2022-08-21T12:53:41;25.20;45.30
210;DHT22;90;48.810;9.120;2022-08-21T12:56:13;25.30;44.30
210;DHT22;90;48.810;9.120;2022-08-21T12:58:44;25.20;44.20
210;DHT22;90;48.810;9.120;2022-08-21T13:01:17;25.30;44.40
210;DHT22;90;48.810;9.120;2022-08-21T13:03:46;25.50;43.80
210;DHT22;90;48.810;9.120;2022-08-21T13:06:15;25.90;43.00
210;DHT22;90;48.810;9.120;2022-08-21T13:08:45;26.20;42.80
210;DHT22;90;48.810;9.120;2022-08-21T13:11:16;26.60;40.90
210;DHT22;90;48.810;9.120;2022-08-21T13:13:49;26.90;40.50
210;DHT22;90;48.810;9.120;2022-08-21T13:16:20;27.10;40.50
210;DHT22;90;48.810;9.120;2022-08-21T13:18:55;27.10;40.20
210;DHT22;90;48.810;9.120;2022-08-21T13:21:28;27.20;41.00
210;DHT22;90;48.810;9.120;2022-08-21T13:24:13;27.40;40.60
210;DHT22;90;48.810;9.120;2022-08-21T13:26:41;27.40;39.60
210;DHT22;90;48.810;9.120;2022-08-21T13:29:11;27.50;39.90
210;DHT22;90;48.810;9.120;2022-08-21T13:31:40;27.60;39.60
210;DHT22;90;48.810;9.120;2022-08-21T13:34:09;27.70;39.50
210;DHT22;90;48.810;9.120;2022-08-21T13:36:39;28.00;38.40
210;DHT22;90;48.810;9.120;2022-08-21T13:39:11;28.10;38.50
210;DHT22;90;48.810;9.120;2022-08-21T13:41:41;28.20;38.40
210;DHT22;90;48.810;9.120;2022-08-21T13:44:17;28.40;37.20
210;DHT22;90;48.810;9.120;2022-08-21T13:46:45;28.50;37.30
210;DHT22;90;48.810;9.120;2022-08-21T13:49:15;28.40;38.10
210;DHT22;90;48.810;9.120;2022-08-21T13:51:43;28.50;37.00
210;DHT22;90;48.810;9.120;2022-08-21T13:54:23;28.70;36.30
210;DHT22;90;48.810;9.120;2022-08-21T13:56:52;28.80;36.70
210;DHT22;90;48.810;9.120;2022-08-21T13:59:27;28.70;36.00
210;DHT22;90;48.810;9.120;2022-08-21T14:01:57;28.80;36.20
210;DHT22;90;48.810;9.120;2022-08-21T14:04:31;28.80;35.40
210;DHT22;90;48.810;9.120;2022-08-21T14:07:00;28.80;35.90
210;DHT22;90;48.810;9.120;2022-08-21T14:09:31;28.80;35.80
210;DHT22;90;48.810;9.120;2022-08-21T14:12:02;28.80;35.30
210;DHT22;90;48.810;9.120;2022-08-21T14:14:33;28.80;35.20
210;DHT22;90;48.810;9.120;2022-08-21T14:17:03;28.80;35.80
210;DHT22;90;48.810;9.120;2022-08-21T14:19:36;28.70;35.50
210;DHT22;90;48.810;9.120;2022-08-21T14:22:22;28.80;35.90
210;DHT22;90;48.810;9.120;2022-08-21T14:24:59;29.00;35.40
210;DHT22;90;48.810;9.120;2022-08-21T14:27:28;29.00;36.10
210;DHT22;90;48.810;9.120;2022-08-21T14:29:59;29.20;35.40
210;DHT22;90;48.810;9.120;2022-08-21T14:32:28;29.40;34.60
210;DHT22;90;48.810;9.120;2022-08-21T14:34:56;29.60;33.90
210;DHT22;90;48.810;9.120;2022-08-21T14:37:26;29.60;34.40
210;DHT22;90;48.810;9.120;2022-08-21T14:39:55;29.70;33.70
210;DHT22;90;48.810;9.120;2022-08-21T14:42:22;29.70;33.40
210;DHT22;90;48.810;9.120;2022-08-21T14:44:50;29.80;33.20
210;DHT22;90;48.810;9.120;2022-08-21T14:47:17;30.00;32.80
210;DHT22;90;48.810;9.120;2022-08-21T14:49:44;30.10;33.10
210;DHT22;90;48.810;9.120;2022-08-21T14:52:12;30.20;31.80
210;DHT22;90;48.810;9.120;2022-08-21T14:54:39;30.20;32.00
210;DHT22;90;48.810;9.120;2022-08-21T14:57:09;30.10;32.20
210;DHT22;90;48.810;9.120;2022-08-21T14:59:38;30.00;32.20
210;DHT22;90;48.810;9.120;2022-08-21T15:02:06;29.70;33.50
210;DHT22;90;48.810;9.120;2022-08-21T15:04:34;29.60;34.10
210;DHT22;90;48.810;9.120;2022-08-21T15:07:01;29.50;33.90
210;DHT22;90;48.810;9.120;2022-08-21T15:09:31;29.50;34.30
210;DHT22;90;48.810;9.120;2022-08-21T15:12:00;29.50;33.50
210;DHT22;90;48.810;9.120;2022-08-21T15:14:31;29.70;33.50
210;DHT22;90;48.810;9.120;2022-08-21T15:16:59;29.80;32.70
210;DHT22;90;48.810;9.120;2022-08-21T15:19:27;30.10;31.80
210;DHT22;90;48.810;9.120;2022-08-21T15:21:55;30.20;32.20
210;DHT22;90;48.810;9.120;2022-08-21T15:24:22;30.30;31.20
210;DHT22;90;48.810;9.120;2022-08-21T15:26:51;30.40;31.40
210;DHT22;90;48.810;9.120;2022-08-21T15:29:20;30.50;31.20
210;DHT22;90;48.810;9.120;2022-08-21T15:31:53;30.30;31.30
210;DHT22;90;48.810;9.120;2022-08-21T15:34:21;30.20;31.50
210;DHT22;90;48.810;9.120;2022-08-21T15:36:49;30.30;31.70
210;DHT22;90;48.810;9.120;2022-08-21T15:39:16;30.40;31.60
210;DHT22;90;48.810;9.120;2022-08-21T15:41:44;30.50;31.20
210;DHT22;90;48.810;9.120;2022-08-21T15:44:12;30.80;31.50
210;DHT22;90;48.810;9.120;2022-08-21T15:46:40;31.00;31.10
210;DHT22;90;48.810;9.120;2022-08-21T15:49:11;31.10;30.90
210;DHT22;90;48.810;9.120;2022-08-21T15:51:38;31.20;30.50
210;DHT22;90;48.810;9.120;2022-08-21T15:54:06;31.00;30.40
210;DHT22;90;48.810;9.120;2022-08-21T15:56:37;30.80;31.10
210;DHT22;90;48.810;9.120;2022-08-21T15:59:07;31.00;31.50
210;DHT22;90;48.810;9.120;2022-08-21T16:01:35;31.20;31.10
210;DHT22;90;48.810;9.120;2022-08-21T16:04:04;31.30;31.20
210;DHT22;90;48.810;9.120;2022-08-21T16:06:33;31.30;30.70
210;DHT22;90;48.810;9.120;2022-08-21T16:09:01;31.10;30.80
210;DHT22;90;48.810;9.120;2022-08-21T16:11:28;30.80;30.90
210;DHT22;90;48.810;9.120;2022-08-21T16:13:56;30.60;31.30
210;DHT22;90;48.810;9.120;2022-08-21T16:16:24;30.50;31.30
210;DHT22;90;48.810;9.120;2022-08-21T16:18:51;30.40;31.40
210;DHT22;90;48.810;9.120;2022-08-21T16:21:19;30.60;31.90
210;DHT22;90;48.810;9.120;2022-08-21T16:23:47;30.80;31.80
210;DHT22;90;48.810;9.120;2022-08-21T16:26:16;31.00;31.40
210;DHT22;90;48.810;9.120;2022-08-21T16:28:43;31.20;31.90
210;DHT22;90;48.810;9.120;2022-08-21T16:31:12;31.30;30.10
210;DHT22;90;48.810;9.120;2022-08-21T16:33:41;31.40;30.10
210;DHT22;90;48.810;9.120;2022-08-21T16:36:10;31.30;30.40
210;DHT22;90;48.810;9.120;2022-08-21T16:38:38;31.40;29.80
210;DHT22;90;48.810;9.120;2022-08-21T16:41:10;31.40;30.10
210;DHT22;90;48.810;9.120;2022-08-21T16:43:38;31.40;30.20
210;DHT22;90;48.810;9.120;2022-08-21T16:46:07;31.50;30.40
210;DHT22;90;48.810;9.120;2022-08-21T16:48:34;31.60;30.10
210;DHT22;90;48.810;9.120;2022-08-21T16:51:01;31.50;29.90
210;DHT22;90;48.810;9.120;2022-08-21T16:53:29;31.30;30.10
210;DHT22;90;48.810;9.120;2022-08-21T16:55:56;31.30;30.10
210;DHT22;90;48.810;9.120;2022-08-21T16:58:30;31.30;29.80
210;DHT22;90;48.810;9.120;2022-08-21T17:00:59;31.40;29.80
210;DHT22;90;48.810;9.120;2022-08-21T17:03:36;31.40;30.20
210;DHT22;90;48.810;9.120;2022-08-21T17:06:04;31.40;30.00
210;DHT22;90;48.810;9.120;2022-08-21T17:08:31;31.40;29.90
210;DHT22;90;48.810;9.120;2022-08-21T17:11:02;31.40;30.60